Time;durP1;ratioP1;P1;durP2;ratioP2;P2;SDS_P1;SDS_P2;PMS_P1;PMS_P2;Temp;Humidity;BMP_temperature;BMP_pressure;BME280_temperature;BME280_humidity;BME280_pressure;Samples;Min_cycle;Max_cycle;Signal;HPM_P1;HPM_P2
2022/03/04 00:02:10;;;;;;;35.85;18.23;;;-1.60;97.10;;;;;;5115458;28;20039;-70
2022/03/04 00:04:37;;;;;;;41.50;19.40;;;-1.60;96.70;;;;;;5114373;28;20027;-69
2022/03/04 00:07:04;;;;;;;179.93;71.22;;;-1.50;96.40;;;;;;5115736;28;20039;-69
2022/03/04 00:09:30;;;;;;;80.82;35.00;;;-1.50;95.70;;;;;;5115515;28;20020;-71
2022/03/04 00:11:56;;;;;;;44.78;24.42;;;-1.50;96.10;;;;;;5115488;28;20461;-71
2022/03/04 00:14:21;;;;;;;38.38;21.13;;;-1.50;94.70;;;;;;5115359;28;20046;-72
2022/03/04 00:16:47;;;;;;;37.42;19.55;;;-1.50;94.50;;;;;;5114053;28;20062;-70
2022/03/04 00:19:13;;;;;;;54.42;26.48;;;-1.50;94.30;;;;;;5115405;28;20553;-70
2022/03/04 00:21:47;;;;;;;68.65;31.83;;;-1.50;94.40;;;;;;5113976;28;20043;-71
2022/03/04 00:24:13;;;;;;;44.58;20.77;;;-1.40;94.40;;;;;;5115338;28;20027;-71
2022/03/04 00:26:39;;;;;;;40.72;21.60;;;-1.40;94.00;;;;;;5115344;28;20068;-72
2022/03/04 00:29:06;;;;;;;37.35;17.83;;;-1.40;94.10;;;;;;5113872;28;20031;-70
2022/03/04 00:31:33;;;;;;;57.80;27.00;;;-1.50;94.00;;;;;;5115144;28;20477;-70
2022/03/04 00:33:59;;;;;;;52.00;26.35;;;-1.40;94.50;;;;;;5115047;28;20034;-69
2022/03/04 00:36:25;;;;;;;46.35;22.75;;;-1.40;94.60;;;;;;5113756;28;20019;-71
2022/03/04 00:38:52;;;;;;;45.33;21.95;;;-1.40;95.30;;;;;;5115035;28;20031;-70
2022/03/04 00:41:19;;;;;;;40.80;22.70;;;-1.40;94.70;;;;;;5114870;28;20023;-71
2022/03/04 00:43:45;;;;;;;39.63;23.80;;;-1.30;94.30;;;;;;5114888;28;20023;-71
2022/03/04 00:46:11;;;;;;;45.83;20.60;;;-1.30;93.80;;;;;;5113597;28;20114;-70
2022/03/04 00:48:38;;;;;;;34.70;18.73;;;-1.30;93.50;;;;;;5113507;28;20054;-72
2022/03/04 00:51:04;;;;;;;38.08;18.75;;;-1.30;93.70;;;;;;5114689;28;20051;-71
2022/03/04 00:53:30;;;;;;;45.13;22.33;;;-1.30;93.90;;;;;;5113454;28;20072;-70
2022/03/04 00:55:56;;;;;;;41.50;21.13;;;-1.30;94.50;;;;;;5114601;28;20488;-71
2022/03/04 00:58:22;;;;;;;46.55;21.45;;;-1.30;94.40;;;;;;5114503;28;20491;-69
2022/03/04 01:00:47;;;;;;;73.50;31.42;;;-1.30;94.40;;;;;;5113239;28;20061;-70
2022/03/04 01:03:13;;;;;;;56.45;27.98;;;-1.40;94.60;;;;;;5114380;28;20385;-70
2022/03/04 01:05:39;;;;;;;47.10;21.23;;;-1.50;94.80;;;;;;5114444;28;20016;-72
2022/03/04 01:08:05;;;;;;;48.50;22.55;;;-1.50;95.30;;;;;;5113600;28;20443;-72
2022/03/04 01:10:30;;;;;;;45.05;23.85;;;-1.50;96.00;;;;;;5114426;28;20077;-71
2022/03/04 01:12:56;;;;;;;43.33;22.33;;;-1.50;96.50;;;;;;5114254;28;20103;-72
2022/03/04 01:15:22;;;;;;;44.78;22.45;;;-1.60;96.80;;;;;;5114262;28;20035;-70
2022/03/04 01:17:47;;;;;;;47.58;20.15;;;-1.60;97.50;;;;;;5114169;28;20019;-70
2022/03/04 01:20:13;;;;;;;38.80;20.08;;;-1.60;98.00;;;;;;5113050;28;20024;-70
2022/03/04 01:22:39;;;;;;;36.45;19.45;;;-1.60;97.80;;;;;;5114115;28;20431;-72
2022/03/04 01:25:05;;;;;;;36.67;21.10;;;-1.60;97.90;;;;;;5112863;28;20019;-69
2022/03/04 01:27:31;;;;;;;38.60;20.63;;;-1.60;98.10;;;;;;5114067;28;20073;-69
2022/03/04 01:29:56;;;;;;;42.80;20.63;;;-1.60;97.90;;;;;;5114075;28;20023;-69
2022/03/04 01:32:22;;;;;;;37.70;19.52;;;-1.60;97.60;;;;;;5114004;28;20021;-69
2022/03/04 01:34:47;;;;;;;34.95;18.52;;;-1.60;97.60;;;;;;5113939;28;20039;-70
2022/03/04 01:37:13;;;;;;;57.45;29.63;;;-1.60;98.00;;;;;;5113967;28;20526;-72
2022/03/04 01:39:39;;;;;;;40.90;22.20;;;-1.60;98.30;;;;;;5112594;28;20031;-70
2022/03/04 01:42:05;;;;;;;45.65;21.75;;;-1.60;98.80;;;;;;5114000;28;20465;-72
2022/03/04 01:44:30;;;;;;;45.20;23.02;;;-1.60;98.90;;;;;;5113818;28;20019;-69
2022/03/04 01:46:56;;;;;;;36.63;18.75;;;-1.60;99.10;;;;;;5113813;28;20473;-70
2022/03/04 01:49:21;;;;;;;38.45;19.88;;;-1.70;99.50;;;;;;5112249;28;20111;-70
2022/03/04 01:51:47;;;;;;;41.78;20.15;;;-1.70;99.90;;;;;;5112514;28;20420;-72
2022/03/04 01:54:13;;;;;;;37.50;18.88;;;-1.70;99.90;;;;;;5113783;28;20043;-72
2022/03/04 01:56:39;;;;;;;56.47;28.60;;;-1.70;99.90;;;;;;5112415;28;20019;-71
2022/03/04 01:59:05;;;;;;;56.35;30.50;;;-1.70;99.90;;;;;;5113669;28;20023;-69
2022/03/04 02:01:32;;;;;;;33.13;18.40;;;-1.60;99.90;;;;;;5112505;28;20032;-71
2022/03/04 02:03:58;;;;;;;43.65;20.05;;;-1.70;99.90;;;;;;5112594;28;20039;-71
2022/03/04 02:06:24;;;;;;;47.55;24.83;;;-1.70;99.90;;;;;;5112380;28;20020;-72
2022/03/04 02:08:50;;;;;;;38.20;20.52;;;-1.70;99.90;;;;;;5113599;28;20107;-70
2022/03/04 02:11:15;;;;;;;43.17;22.45;;;-1.70;99.90;;;;;;5113560;28;20098;-69
2022/03/04 02:13:42;;;;;;;67.20;39.75;;;-1.70;99.90;;;;;;5112167;28;20472;-70
2022/03/04 02:16:27;;;;;;;60.25;33.35;;;-1.70;99.90;;;;;;5113428;28;20020;-70
2022/03/04 02:18:53;;;;;;;48.10;23.55;;;-1.70;99.90;;;;;;5113596;28;20050;-72
2022/03/04 02:21:22;;;;;;;63.17;29.17;;;-1.70;99.90;;;;;;5117558;27;20099;-71
2022/03/04 02:23:48;;;;;;;45.60;23.33;;;-1.70;99.90;;;;;;5117580;28;20019;-72
2022/03/04 02:26:14;;;;;;;38.97;19.13;;;-1.60;99.90;;;;;;5116308;28;20026;-70
2022/03/04 02:28:39;;;;;;;41.95;21.40;;;-1.60;99.90;;;;;;5116218;28;20030;-70
2022/03/04 02:31:05;;;;;;;53.65;25.20;;;-1.60;99.90;;;;;;5117446;28;20024;-72
2022/03/04 02:33:31;;;;;;;41.45;22.10;;;-1.60;99.90;;;;;;5116190;28;20024;-71
2022/03/04 02:35:56;;;;;;;60.58;28.70;;;-1.60;99.90;;;;;;5117233;28;20416;-70
2022/03/04 02:38:22;;;;;;;49.40;23.80;;;-1.60;99.90;;;;;;5116020;28;20052;-72
2022/03/04 02:40:48;;;;;;;41.45;21.95;;;-1.70;99.90;;;;;;5116014;28;20016;-72
2022/03/04 02:43:13;;;;;;;44.67;21.25;;;-1.70;99.90;;;;;;5117141;28;20023;-71
2022/03/04 02:45:39;;;;;;;50.50;25.08;;;-1.70;99.90;;;;;;5115958;28;20034;-70
2022/03/04 02:48:05;;;;;;;43.85;23.00;;;-1.70;99.90;;;;;;5117256;28;20094;-70
2022/03/04 02:50:30;;;;;;;36.35;20.17;;;-1.70;99.90;;;;;;5117135;27;20051;-72
2022/03/04 02:52:57;;;;;;;39.20;20.45;;;-1.70;99.90;;;;;;5117013;28;20077;-71
2022/03/04 02:55:22;;;;;;;46.72;24.30;;;-1.70;99.90;;;;;;5115799;28;20039;-70
2022/03/04 02:57:48;;;;;;;46.78;23.00;;;-1.60;99.90;;;;;;5117051;28;20012;-71
2022/03/04 03:00:16;;;;;;;61.50;28.00;;;-1.60;99.90;;;;;;5116972;28;20034;-69
2022/03/04 03:02:42;;;;;;;69.85;33.83;;;-1.60;99.90;;;;;;5116901;28;20038;-69
2022/03/04 03:05:09;;;;;;;54.75;24.27;;;-1.50;99.90;;;;;;5116980;28;20024;-71
2022/03/04 03:07:35;;;;;;;64.28;30.13;;;-1.60;99.90;;;;;;5115601;28;20062;-69
2022/03/04 03:10:02;;;;;;;52.28;25.98;;;-1.60;99.90;;;;;;5116874;28;20392;-71
2022/03/04 03:12:28;;;;;;;55.22;24.85;;;-1.60;99.90;;;;;;5116711;28;20034;-70
2022/03/04 03:14:53;;;;;;;92.43;39.47;;;-1.70;99.90;;;;;;5115374;28;20027;-69
2022/03/04 03:17:20;;;;;;;54.10;26.33;;;-1.70;99.90;;;;;;5116639;27;20026;-71
2022/03/04 03:19:46;;;;;;;63.63;31.33;;;-1.70;99.90;;;;;;5115195;28;20049;-72
2022/03/04 03:22:12;;;;;;;52.42;27.77;;;-1.70;99.90;;;;;;5116342;28;20399;-71
2022/03/04 03:24:37;;;;;;;49.30;23.85;;;-1.70;99.90;;;;;;5116508;28;20023;-69
2022/03/04 03:27:03;;;;;;;96.78;38.67;;;-1.70;99.90;;;;;;5116340;27;20016;-71
2022/03/04 03:29:29;;;;;;;63.22;31.15;;;-1.70;99.90;;;;;;5116036;28;20385;-71
2022/03/04 03:31:54;;;;;;;75.40;31.35;;;-1.70;99.90;;;;;;5115480;28;20020;-71
2022/03/04 03:34:20;;;;;;;72.30;29.95;;;-1.70;99.90;;;;;;5116202;27;20035;-69
2022/03/04 03:36:45;;;;;;;65.68;29.88;;;-1.70;99.90;;;;;;5116209;28;20016;-72
2022/03/04 03:39:11;;;;;;;56.88;28.30;;;-1.70;99.90;;;;;;5114889;28;20042;-70
2022/03/04 03:41:37;;;;;;;58.33;26.75;;;-1.70;99.90;;;;;;5114653;28;20111;-72
2022/03/04 03:44:02;;;;;;;64.70;29.92;;;-1.70;99.90;;;;;;5115956;28;20031;-70
2022/03/04 03:46:28;;;;;;;53.13;27.95;;;-1.70;99.90;;;;;;5114836;28;20036;-70
2022/03/04 03:48:53;;;;;;;56.20;25.85;;;-1.70;99.90;;;;;;5115931;28;20469;-71
2022/03/04 03:51:19;;;;;;;56.85;25.98;;;-1.70;99.90;;;;;;5115926;28;20055;-72
2022/03/04 03:53:45;;;;;;;56.05;26.35;;;-1.60;99.90;;;;;;5115797;28;20100;-69
2022/03/04 03:56:10;;;;;;;70.43;30.17;;;-1.60;99.90;;;;;;5114607;28;20034;-71
2022/03/04 03:58:36;;;;;;;58.38;28.80;;;-1.70;99.90;;;;;;5115789;28;20036;-70
2022/03/04 04:01:02;;;;;;;62.47;29.25;;;-1.60;99.90;;;;;;5115796;28;20046;-70
2022/03/04 04:03:28;;;;;;;63.28;28.23;;;-1.70;99.90;;;;;;5115568;28;20023;-69
2022/03/04 04:05:53;;;;;;;74.57;33.25;;;-1.70;99.90;;;;;;5115667;28;20050;-71
2022/03/04 04:08:19;;;;;;;60.58;27.58;;;-1.70;99.90;;;;;;5115627;28;20020;-70
2022/03/04 04:10:45;;;;;;;59.75;28.55;;;-1.70;99.90;;;;;;5115578;28;20023;-70
2022/03/04 04:13:11;;;;;;;64.40;30.30;;;-1.70;99.90;;;;;;5115456;28;20035;-71
2022/03/04 04:15:37;;;;;;;66.45;31.92;;;-1.70;99.90;;;;;;5115348;28;20059;-71
2022/03/04 04:18:02;;;;;;;74.80;32.35;;;-1.70;99.90;;;;;;5114025;28;20512;-69
2022/03/04 04:20:28;;;;;;;78.80;32.22;;;-1.60;99.90;;;;;;5115423;28;20019;-70
2022/03/04 04:22:53;;;;;;;79.22;35.80;;;-1.60;99.90;;;;;;5115279;28;20028;-71
2022/03/04 04:25:19;;;;;;;117.25;46.10;;;-1.60;99.90;;;;;;5115394;28;20027;-71
2022/03/04 04:27:45;;;;;;;299.30;101.90;;;-1.60;99.90;;;;;;5113869;28;20024;-72
2022/03/04 04:30:11;;;;;;;167.10;62.40;;;-1.60;99.90;;;;;;5115197;28;20031;-70
2022/03/04 04:32:36;;;;;;;374.58;123.95;;;-1.60;99.90;;;;;;5113931;28;20067;-72
2022/03/04 04:35:03;;;;;;;165.07;59.53;;;-1.60;99.90;;;;;;5114980;28;20397;-69
2022/03/04 04:37:28;;;;;;;123.25;49.65;;;-1.60;99.90;;;;;;5115038;28;20436;-71
2022/03/04 04:39:54;;;;;;;82.35;35.30;;;-1.50;99.90;;;;;;5113847;28;20055;-71
2022/03/04 04:42:20;;;;;;;252.23;91.65;;;-1.60;99.90;;;;;;5114807;28;20068;-70
2022/03/04 04:44:45;;;;;;;81.03;35.60;;;-1.60;99.90;;;;;;5114759;28;20090;-71
2022/03/04 04:47:12;;;;;;;73.95;32.78;;;-1.60;99.90;;;;;;5115032;28;20524;-72
2022/03/04 04:49:38;;;;;;;89.93;36.38;;;-1.60;99.90;;;;;;5113346;28;20119;-69
2022/03/04 04:52:05;;;;;;;165.88;59.03;;;-1.60;99.90;;;;;;5115055;28;20050;-69
2022/03/04 04:54:31;;;;;;;117.82;45.05;;;-1.60;99.90;;;;;;5114608;28;20035;-71
2022/03/04 04:56:57;;;;;;;78.10;33.67;;;-1.60;99.90;;;;;;5114709;28;20111;-70
2022/03/04 04:59:24;;;;;;;110.82;42.10;;;-1.60;99.90;;;;;;5114865;28;20466;-72
2022/03/04 05:01:49;;;;;;;80.28;34.80;;;-1.60;99.90;;;;;;5114526;28;20059;-70
2022/03/04 05:04:15;;;;;;;72.90;34.15;;;-1.60;99.90;;;;;;5113124;28;20024;-72
2022/03/04 05:06:40;;;;;;;80.50;32.33;;;-1.60;99.90;;;;;;5114396;28;20412;-72
2022/03/04 05:09:06;;;;;;;110.88;41.38;;;-1.60;99.90;;;;;;5114526;28;20072;-69
2022/03/04 05:11:32;;;;;;;103.93;39.55;;;-1.60;99.90;;;;;;5114345;28;20485;-71
2022/03/04 05:13:58;;;;;;;98.07;42.08;;;-1.50;99.90;;;;;;5114091;28;20478;-70
2022/03/04 05:16:23;;;;;;;104.97;46.45;;;-1.50;99.90;;;;;;5114253;28;20027;-71
2022/03/04 05:18:49;;;;;;;85.97;36.88;;;-1.50;99.90;;;;;;5114132;28;20486;-72
2022/03/04 05:21:14;;;;;;;160.52;56.38;;;-1.60;99.90;;;;;;5114160;28;20019;-72
2022/03/04 05:26:24;;;;;;;75.13;36.08;;;-1.50;99.90;;;;;;5114115;28;20074;-69
2022/03/04 05:28:50;;;;;;;79.32;35.42;;;-1.50;99.90;;;;;;5114072;28;20050;-69
2022/03/04 05:31:16;;;;;;;124.60;47.90;;;-1.50;99.90;;;;;;5114030;28;20492;-70
2022/03/04 05:33:42;;;;;;;96.93;39.97;;;-1.50;99.90;;;;;;5112657;28;20046;-69
2022/03/04 05:36:07;;;;;;;185.63;65.50;;;-1.50;99.90;;;;;;5114027;28;20046;-69
2022/03/04 05:38:33;;;;;;;100.30;44.63;;;-1.40;99.90;;;;;;5114005;28;20034;-70
2022/03/04 05:40:59;;;;;;;138.63;61.55;;;-1.50;99.90;;;;;;5112602;28;20023;-71
2022/03/04 05:43:24;;;;;;;160.15;70.13;;;-1.40;99.90;;;;;;5113886;28;20030;-70
2022/03/04 05:45:51;;;;;;;145.50;65.57;;;-1.40;99.90;;;;;;5113932;28;20110;-70
2022/03/04 05:48:17;;;;;;;115.03;42.72;;;-1.40;99.90;;;;;;5113874;28;20032;-69
2022/03/04 05:50:43;;;;;;;141.88;56.95;;;-1.30;99.90;;;;;;5113475;28;20520;-69
2022/03/04 05:53:09;;;;;;;208.23;81.38;;;-1.30;99.90;;;;;;5113152;28;20023;-69
2022/03/04 05:55:34;;;;;;;86.55;36.15;;;-1.30;99.90;;;;;;5113561;28;20027;-72
2022/03/04 05:58:00;;;;;;;72.03;32.45;;;-1.30;99.90;;;;;;5113734;28;20473;-70
2022/03/04 06:00:27;;;;;;;76.15;33.58;;;-1.40;99.90;;;;;;5113482;28;20024;-72
2022/03/04 06:02:52;;;;;;;108.10;43.20;;;-1.30;99.90;;;;;;5113511;28;20024;-69
2022/03/04 06:05:18;;;;;;;85.97;37.63;;;-1.30;99.90;;;;;;5113613;28;20020;-72
2022/03/04 06:07:44;;;;;;;88.68;37.60;;;-1.30;99.90;;;;;;5112121;28;20031;-71
2022/03/04 06:10:09;;;;;;;89.05;42.13;;;-1.30;99.90;;;;;;5112258;28;20391;-72
2022/03/04 06:12:35;;;;;;;111.60;50.88;;;-1.30;99.90;;;;;;5098694;28;20469;-69
2022/03/04 06:15:01;;;;;;;92.00;40.95;;;-1.30;99.90;;;;;;5091753;27;20047;-69
2022/03/04 06:17:26;;;;;;;84.57;41.33;;;-1.30;99.90;;;;;;5092438;28;20024;-72
2022/03/04 06:19:52;;;;;;;91.45;43.85;;;-1.20;99.90;;;;;;5091931;27;20032;-72
2022/03/04 06:22:18;;;;;;;85.97;40.20;;;-1.10;99.90;;;;;;5091569;28;20027;-72
2022/03/04 06:24:44;;;;;;;88.88;37.28;;;-1.10;99.90;;;;;;5090731;28;20039;-72
2022/03/04 06:27:10;;;;;;;86.47;36.72;;;-1.10;99.90;;;;;;5091009;28;20028;-69
2022/03/04 06:29:36;;;;;;;165.60;64.72;;;-1.10;99.90;;;;;;5092032;27;20040;-73
2022/03/04 06:32:01;;;;;;;123.35;54.63;;;-1.10;99.90;;;;;;5090859;28;20071;-69
2022/03/04 06:34:27;;;;;;;126.05;45.75;;;-1.00;99.90;;;;;;5091298;27;20044;-72
2022/03/04 06:36:52;;;;;;;106.55;43.25;;;-0.90;99.90;;;;;;5090936;28;20020;-73
2022/03/04 06:39:18;;;;;;;115.20;48.10;;;-1.00;99.90;;;;;;5094844;28;20103;-72
2022/03/04 06:41:43;;;;;;;128.10;51.22;;;-1.00;99.90;;;;;;5091198;27;20059;-73
2022/03/04 06:44:09;;;;;;;105.40;42.95;;;-1.00;99.90;;;;;;5119101;28;20481;-70
2022/03/04 06:46:35;;;;;;;97.05;46.63;;;-1.00;99.90;;;;;;5132194;27;20421;-70
2022/03/04 06:49:00;;;;;;;95.35;41.45;;;-1.00;99.90;;;;;;5132728;27;20023;-69
2022/03/04 06:51:27;;;;;;;93.80;41.70;;;-1.00;99.90;;;;;;5112782;27;20051;-72
2022/03/04 06:53:52;;;;;;;99.40;40.60;;;-1.00;99.90;;;;;;5111249;28;20389;-73
2022/03/04 06:56:18;;;;;;;107.88;40.38;;;-0.90;99.90;;;;;;5112291;28;20020;-72
2022/03/04 06:58:44;;;;;;;84.00;39.25;;;-0.90;99.90;;;;;;5109585;28;20045;-73
2022/03/04 07:01:10;;;;;;;87.00;41.45;;;-0.90;99.90;;;;;;5111461;28;20027;-72
2022/03/04 07:03:36;;;;;;;98.85;41.72;;;-0.80;99.90;;;;;;5112169;28;20079;-72
2022/03/04 07:06:02;;;;;;;95.93;38.13;;;-0.80;99.90;;;;;;5114063;28;20437;-72
2022/03/04 07:08:30;;;;;;;96.90;40.28;;;-0.80;99.90;;;;;;5115203;28;20461;-71
2022/03/04 07:10:56;;;;;;;97.82;44.78;;;-0.80;99.90;;;;;;5113393;28;20092;-73
2022/03/04 07:13:22;;;;;;;106.40;41.70;;;-0.70;99.90;;;;;;5114895;28;20073;-72
2022/03/04 07:15:48;;;;;;;89.38;41.75;;;-0.70;99.90;;;;;;5116203;28;20542;-72
2022/03/04 07:18:13;;;;;;;92.07;39.47;;;-0.70;99.90;;;;;;5115117;28;20028;-69
2022/03/04 07:20:40;;;;;;;87.55;38.95;;;-0.70;99.90;;;;;;5115391;28;20026;-70
2022/03/04 07:23:06;;;;;;;89.78;39.53;;;-0.60;99.90;;;;;;5116253;28;20494;-70
2022/03/04 07:25:32;;;;;;;90.20;38.72;;;-0.60;99.90;;;;;;5115258;28;20057;-70
2022/03/04 07:27:57;;;;;;;84.70;33.85;;;-0.60;99.90;;;;;;5115186;28;20020;-69
2022/03/04 07:30:23;;;;;;;79.68;35.67;;;-0.70;99.90;;;;;;5115217;28;20392;-71
2022/03/04 07:32:49;;;;;;;79.30;33.15;;;-0.70;99.90;;;;;;5116378;28;20027;-72
2022/03/04 07:35:15;;;;;;;85.72;33.08;;;-0.70;99.90;;;;;;5116198;28;20027;-70
2022/03/04 07:37:42;;;;;;;88.13;34.60;;;-0.70;99.90;;;;;;5116316;28;20077;-69
2022/03/04 07:40:09;;;;;;;87.72;34.08;;;-0.70;99.90;;;;;;5116225;28;20023;-70
2022/03/04 07:42:35;;;;;;;107.45;43.28;;;-0.60;99.90;;;;;;5114983;28;20026;-72
2022/03/04 07:45:01;;;;;;;90.00;36.35;;;-0.70;99.90;;;;;;5114915;28;20023;-72
2022/03/04 07:47:26;;;;;;;86.18;37.38;;;-0.60;99.90;;;;;;5116018;28;20051;-69
2022/03/04 07:49:52;;;;;;;87.65;39.60;;;-0.60;99.90;;;;;;5115893;28;20044;-69
2022/03/04 07:52:18;;;;;;;80.97;37.97;;;-0.50;99.90;;;;;;5115663;28;20031;-72
2022/03/04 07:54:44;;;;;;;98.97;34.90;;;-0.50;99.90;;;;;;5114674;28;20378;-72
2022/03/04 07:57:09;;;;;;;82.88;34.40;;;-0.40;99.90;;;;;;5114848;28;20027;-72
2022/03/04 07:59:35;;;;;;;85.05;35.50;;;-0.40;99.90;;;;;;5115924;28;20030;-69
2022/03/04 08:02:01;;;;;;;82.10;35.90;;;-0.50;99.90;;;;;;5115979;28;20099;-73
2022/03/04 08:04:26;;;;;;;78.28;36.47;;;-0.60;99.90;;;;;;5115812;28;20020;-71
2022/03/04 08:06:52;;;;;;;80.50;37.40;;;-0.50;99.90;;;;;;5115740;28;20023;-72
2022/03/04 08:09:17;;;;;;;88.15;36.55;;;-0.60;99.90;;;;;;5115638;28;20016;-69
2022/03/04 08:11:44;;;;;;;87.78;36.65;;;-0.60;99.90;;;;;;5115736;28;20016;-71
2022/03/04 08:14:10;;;;;;;79.72;33.05;;;-0.60;99.90;;;;;;5115378;28;20034;-72
2022/03/04 08:16:36;;;;;;;77.68;35.75;;;-0.60;99.90;;;;;;5113826;28;20016;-70
2022/03/04 08:19:05;;;;;;;76.70;34.08;;;-0.60;99.90;;;;;;5115542;28;20023;-73
2022/03/04 08:21:31;;;;;;;83.93;34.80;;;-0.60;99.90;;;;;;5114100;28;20535;-69
2022/03/04 08:23:57;;;;;;;87.75;34.25;;;-0.50;99.90;;;;;;5115466;28;20020;-72
2022/03/04 08:26:23;;;;;;;88.63;37.33;;;-0.50;99.90;;;;;;5115456;28;20107;-71
2022/03/04 08:28:49;;;;;;;85.13;38.55;;;-0.50;99.90;;;;;;5115328;27;20023;-69
2022/03/04 08:31:15;;;;;;;87.78;35.90;;;-0.40;99.90;;;;;;5115366;28;20015;-70
2022/03/04 08:33:43;;;;;;;90.88;37.63;;;-0.40;99.90;;;;;;5115279;28;20577;-71
2022/03/04 08:36:09;;;;;;;84.47;36.72;;;-0.40;99.90;;;;;;5115109;28;20112;-72
2022/03/04 08:38:35;;;;;;;83.38;37.78;;;-0.30;99.90;;;;;;5115186;28;20020;-72
2022/03/04 08:41:00;;;;;;;83.13;35.40;;;-0.30;99.90;;;;;;5115107;28;20381;-72
2022/03/04 08:43:26;;;;;;;81.97;34.88;;;-0.20;99.90;;;;;;5115049;28;20015;-72
2022/03/04 08:45:52;;;;;;;76.20;34.28;;;-0.20;99.90;;;;;;5115085;28;20024;-72
2022/03/04 08:48:18;;;;;;;91.53;37.78;;;-0.20;99.90;;;;;;5114820;28;20446;-70
2022/03/04 08:50:43;;;;;;;83.22;34.80;;;-0.10;99.90;;;;;;5114747;28;20044;-70
2022/03/04 08:53:09;;;;;;;77.20;35.95;;;0.00;99.90;;;;;;5114930;28;20461;-70
2022/03/04 08:55:35;;;;;;;75.93;31.45;;;0.10;99.90;;;;;;5114835;28;20031;-72
2022/03/04 08:58:01;;;;;;;72.10;32.20;;;0.10;99.90;;;;;;5114736;28;20496;-73
2022/03/04 09:00:28;;;;;;;75.78;32.10;;;0.10;99.90;;;;;;5114701;28;20027;-70
2022/03/04 09:02:54;;;;;;;81.60;37.88;;;0.10;99.90;;;;;;5114640;28;20023;-71
2022/03/04 09:05:19;;;;;;;96.20;45.80;;;0.00;99.90;;;;;;5113304;28;20499;-71
2022/03/04 09:07:45;;;;;;;85.45;43.75;;;0.00;99.90;;;;;;5114648;28;20020;-72
2022/03/04 09:10:11;;;;;;;69.55;29.92;;;0.00;99.90;;;;;;5114430;28;20468;-72
2022/03/04 09:12:36;;;;;;;51.95;22.90;;;0.00;99.90;;;;;;5114484;28;20023;-70
2022/03/04 09:15:04;;;;;;;65.43;29.85;;;-0.20;99.90;;;;;;5114417;28;20028;-71
2022/03/04 09:17:29;;;;;;;63.75;29.40;;;-0.20;99.90;;;;;;5114312;28;20024;-71
2022/03/04 09:19:55;;;;;;;52.17;24.02;;;-0.10;99.90;;;;;;5114369;28;20188;-70
2022/03/04 09:22:21;;;;;;;69.07;27.15;;;0.00;99.90;;;;;;5114393;28;20023;-71
2022/03/04 09:24:46;;;;;;;65.35;33.25;;;0.20;99.90;;;;;;5114268;28;20028;-71
2022/03/04 09:27:12;;;;;;;66.93;31.35;;;0.30;99.90;;;;;;5114187;28;20069;-72
2022/03/04 09:29:37;;;;;;;60.42;28.48;;;0.40;99.90;;;;;;5111978;28;20019;-72
2022/03/04 09:32:03;;;;;;;79.85;38.50;;;0.50;99.90;;;;;;5114142;28;20023;-72
2022/03/04 09:34:29;;;;;;;62.33;28.60;;;0.40;99.90;;;;;;5114068;28;20036;-69
2022/03/04 09:36:54;;;;;;;54.65;24.00;;;0.50;99.90;;;;;;5114113;28;20019;-70
2022/03/04 09:39:20;;;;;;;59.70;25.67;;;0.60;99.90;;;;;;5114055;28;20026;-70
2022/03/04 09:41:46;;;;;;;44.85;22.40;;;0.70;99.90;;;;;;5113965;28;20015;-73
2022/03/04 09:44:13;;;;;;;47.10;22.95;;;0.70;99.90;;;;;;5113903;28;20031;-71
2022/03/04 09:46:41;;;;;;;48.33;22.73;;;0.60;99.90;;;;;;5113884;28;20024;-72
2022/03/04 09:49:08;;;;;;;34.03;17.90;;;0.60;99.90;;;;;;5113771;28;20020;-70
2022/03/04 09:51:34;;;;;;;44.53;20.17;;;0.60;99.90;;;;;;5113878;28;20112;-70
2022/03/04 09:54:00;;;;;;;38.05;18.92;;;0.50;99.90;;;;;;5113766;28;20419;-72
2022/03/04 09:56:26;;;;;;;54.00;23.75;;;0.70;99.90;;;;;;5113817;28;20026;-72
2022/03/04 09:58:51;;;;;;;35.17;17.67;;;0.90;99.90;;;;;;5112523;28;20388;-70
2022/03/04 10:01:17;;;;;;;41.60;18.58;;;0.90;99.90;;;;;;5113680;28;20076;-70
2022/03/04 10:03:51;;;;;;;44.72;20.40;;;1.00;98.20;;;;;;5113720;28;20381;-72
2022/03/04 10:06:18;;;;;;;53.17;23.40;;;1.20;99.10;;;;;;5112548;28;20024;-71
2022/03/04 10:08:50;;;;;;;37.97;18.23;;;1.30;98.00;;;;;;5112092;28;20380;-72
2022/03/04 10:11:33;;;;;;;34.20;17.20;;;1.40;95.50;;;;;;5111384;28;20443;-70
2022/03/04 10:14:01;;;;;;;34.00;18.05;;;1.40;95.30;;;;;;5112004;28;20035;-71
2022/03/04 10:16:39;;;;;;;39.13;18.55;;;1.60;94.50;;;;;;5113284;28;20473;-70
2022/03/04 10:19:16;;;;;;;32.10;16.48;;;1.80;93.40;;;;;;5113667;28;20083;-73
2022/03/04 10:21:56;;;;;;;24.67;12.52;;;1.90;87.60;;;;;;5113563;28;20465;-70
2022/03/04 10:24:36;;;;;;;38.70;16.70;;;2.00;85.90;;;;;;5113665;28;20020;-73
2022/03/04 10:27:09;;;;;;;22.27;11.00;;;2.10;84.30;;;;;;5112174;28;20027;-73
2022/03/04 10:29:38;;;;;;;18.35;11.05;;;2.00;79.60;;;;;;5113717;28;20030;-70
2022/03/04 10:32:10;;;;;;;25.65;12.52;;;2.00;80.00;;;;;;5113462;27;20024;-72
2022/03/04 10:35:03;;;;;;;27.85;12.73;;;1.80;77.80;;;;;;5113434;28;20032;-70
2022/03/04 10:37:40;;;;;;;27.60;14.48;;;1.90;79.50;;;;;;5113236;28;20034;-76
2022/03/04 10:40:19;;;;;;;28.58;12.07;;;1.90;81.80;;;;;;5113676;28;20427;-82
2022/03/04 10:42:52;;;;;;;23.35;11.50;;;2.00;81.50;;;;;;5115837;28;20047;-83
2022/03/04 10:45:22;;;;;;;27.98;12.13;;;2.10;79.70;;;;;;5116710;28;20027;-82
2022/03/04 10:47:59;;;;;;;25.80;13.20;;;2.20;77.60;;;;;;5115799;28;20118;-82
2022/03/04 10:50:38;;;;;;;27.08;12.52;;;2.30;78.70;;;;;;5116787;28;20532;-81
2022/03/04 10:53:16;;;;;;;21.05;12.70;;;2.30;78.90;;;;;;5116897;28;20061;-80
2022/03/04 10:55:50;;;;;;;22.15;9.82;;;2.50;78.50;;;;;;5115443;28;20512;-78
2022/03/04 10:58:20;;;;;;;20.55;9.93;;;2.30;75.80;;;;;;5115522;28;20043;-79
2022/03/04 11:01:08;;;;;;;22.80;11.55;;;2.30;75.50;;;;;;5115491;28;20016;-80
2022/03/04 11:03:34;;;;;;;24.15;13.70;;;2.40;75.40;;;;;;5115469;28;20020;-80
2022/03/04 11:06:11;;;;;;;26.40;11.95;;;2.30;77.80;;;;;;5116665;28;20027;-81
2022/03/04 11:08:38;;;;;;;32.55;15.05;;;2.20;77.90;;;;;;5115478;28;20373;-77
2022/03/04 11:11:05;;;;;;;29.02;16.13;;;2.20;79.00;;;;;;5116735;28;20035;-82
2022/03/04 11:13:33;;;;;;;26.70;13.25;;;2.00;80.00;;;;;;5115304;28;20023;-79
2022/03/04 11:16:00;;;;;;;27.10;14.20;;;2.10;79.30;;;;;;5115053;28;20512;-77
2022/03/04 11:18:26;;;;;;;28.88;13.48;;;2.20;78.90;;;;;;5115219;28;20077;-78
2022/03/04 11:20:57;;;;;;;21.30;12.02;;;2.30;75.90;;;;;;5116606;28;20030;-80
2022/03/04 11:23:25;;;;;;;29.38;14.68;;;2.30;75.70;;;;;;5115082;28;20019;-78
2022/03/04 11:26:00;;;;;;;21.30;13.10;;;2.40;77.00;;;;;;5115381;27;20537;-81
2022/03/04 11:28:35;;;;;;;28.25;12.77;;;2.50;77.70;;;;;;5094586;28;20090;-81
2022/03/04 11:31:06;;;;;;;23.77;13.05;;;2.40;77.10;;;;;;5094439;28;20020;-81
2022/03/04 11:33:46;;;;;;;25.35;14.90;;;2.40;77.90;;;;;;5095579;28;20030;-81
2022/03/04 11:36:16;;;;;;;26.60;13.93;;;2.40;78.10;;;;;;5098706;28;20040;-82
2022/03/04 11:38:47;;;;;;;35.50;16.98;;;2.50;78.20;;;;;;5094863;28;20462;-79
2022/03/04 11:41:25;;;;;;;36.40;18.98;;;2.50;79.10;;;;;;5093643;28;20432;-79
2022/03/04 11:43:59;;;;;;;31.40;14.63;;;2.60;81.40;;;;;;5094041;28;20032;-79
2022/03/04 11:46:29;;;;;;;40.03;19.13;;;2.30;79.30;;;;;;5094153;28;20028;-79
2022/03/04 11:49:36;;;;;;;33.95;16.27;;;2.30;80.10;;;;;;5094080;28;20047;-78
2022/03/04 11:52:21;;;;;;;31.30;16.15;;;2.10;82.90;;;;;;5094218;28;20455;-82
2022/03/04 11:54:49;;;;;;;28.00;16.92;;;1.80;81.20;;;;;;5093587;28;20039;-80
2022/03/04 11:57:19;;;;;;;30.30;16.00;;;1.80;81.90;;;;;;5094750;28;20095;-79
2022/03/04 11:59:49;;;;;;;33.05;18.27;;;1.80;83.00;;;;;;5094181;28;20024;-78
2022/03/04 12:02:40;;;;;;;31.48;15.60;;;1.70;86.30;;;;;;5099279;28;20445;-81
2022/03/04 12:05:12;;;;;;;51.88;22.00;;;1.50;88.10;;;;;;5090780;28;20028;-80
2022/03/04 12:07:39;;;;;;;50.50;22.35;;;1.50;91.90;;;;;;5093792;28;20024;-80
2022/03/04 12:10:11;;;;;;;57.13;25.08;;;1.40;94.00;;;;;;5093714;28;20114;-81
2022/03/04 12:12:37;;;;;;;41.92;20.75;;;1.40;95.80;;;;;;5095117;28;20025;-82
2022/03/04 12:15:17;;;;;;;53.72;26.90;;;1.40;99.90;;;;;;5094681;28;20059;-81
2022/03/04 12:17:59;;;;;;;43.30;19.95;;;1.30;99.90;;;;;;5093596;28;20028;-81
2022/03/04 12:21:00;;;;;;;44.00;22.25;;;1.30;99.90;;;;;;5093590;28;20020;-80
2022/03/04 12:23:39;;;;;;;44.10;18.80;;;1.30;99.90;;;;;;5094502;28;20062;-80
2022/03/04 12:26:05;;;;;;;32.15;16.77;;;1.40;99.90;;;;;;5093364;28;20028;-80
2022/03/04 12:28:41;;;;;;;37.65;19.00;;;1.40;99.90;;;;;;5094596;28;20050;-80
2022/03/04 12:31:13;;;;;;;34.45;17.08;;;1.60;99.90;;;;;;5094859;28;20032;-80
2022/03/04 12:33:41;;;;;;;42.95;17.63;;;1.60;99.10;;;;;;5093040;28;20024;-80